Time;durP1;ratioP1;P1;durP2;ratioP2;P2;SDS_P1;SDS_P2;PMS_P1;PMS_P2;Temp;Humidity;BMP_temperature;BMP_pressure;BME280_temperature;BME280_humidity;BME280_pressure;Samples;Min_cycle;Max_cycle;Signal;HPM_P1;HPM_P2
2022/05/24 00:01:01;;;;;;;10.03;9.30;;;;;;;15.25;91.36;99689.09;5032982;28;20431;-45
2022/05/24 00:03:28;;;;;;;9.57;8.90;;;;;;;15.25;91.41;99681.84;5032411;28;20459;-46
2022/05/24 00:05:57;;;;;;;10.60;9.90;;;;;;;15.24;91.38;99682.91;5031313;28;20877;-46
2022/05/24 00:08:25;;;;;;;9.83;9.13;;;;;;;15.23;91.65;99677.81;5030210;28;20440;-47
2022/05/24 00:10:53;;;;;;;9.87;9.20;;;;;;;15.26;91.82;99664.66;5029862;28;20981;-46
2022/05/24 00:13:20;;;;;;;10.10;9.33;;;;;;;15.26;91.78;99656.59;5032067;28;20491;-47
2022/05/24 00:15:48;;;;;;;10.07;9.47;;;;;;;15.23;92.06;99659.00;5032569;28;20977;-49
2022/05/24 00:18:18;;;;;;;9.50;8.80;;;;;;;15.19;92.95;99656.00;5032687;28;20436;-45
2022/05/24 00:20:48;;;;;;;10.70;9.70;;;;;;;15.14;93.45;99647.88;5032394;28;20432;-44
2022/05/24 00:23:19;;;;;;;10.20;9.50;;;;;;;15.13;93.85;99643.59;5032102;28;20456;-46
2022/05/24 00:25:49;;;;;;;10.00;9.40;;;;;;;15.06;94.59;99645.66;5032685;28;20463;-48
2022/05/24 00:28:17;;;;;;;10.30;9.70;;;;;;;15.06;94.82;99631.41;5032592;28;20469;-49
2022/05/24 00:30:47;;;;;;;10.13;9.43;;;;;;;15.03;95.11;99637.28;5032186;28;20480;-43
2022/05/24 00:33:15;;;;;;;9.87;9.23;;;;;;;14.98;95.51;99623.81;5032005;28;20463;-46
2022/05/24 00:35:43;;;;;;;11.07;10.23;;;;;;;14.93;95.98;99617.31;5032123;28;20814;-46
2022/05/24 00:38:15;;;;;;;11.07;10.27;;;;;;;14.93;96.06;99619.22;5032496;28;20436;-46
2022/05/24 00:40:56;;;;;;;11.30;10.53;;;;;;;14.91;96.21;99624.81;5029059;28;20432;-44
2022/05/24 00:43:30;;;;;;;11.70;10.80;;;;;;;14.88;96.18;99619.94;5021661;28;20534;-46
2022/05/24 00:46:02;;;;;;;10.67;9.90;;;;;;;14.88;96.43;99619.94;5026333;28;20470;-44
2022/05/24 00:48:35;;;;;;;10.97;10.27;;;;;;;14.88;96.41;99628.00;5032091;28;20771;-44
2022/05/24 00:51:06;;;;;;;10.97;10.20;;;;;;;14.93;96.70;99633.41;5032023;28;20486;-46
2022/05/24 00:53:38;;;;;;;12.53;11.50;;;;;;;14.91;96.54;99629.38;5031862;28;20471;-44
2022/05/24 00:56:11;;;;;;;12.37;11.40;;;;;;;14.91;96.77;99621.31;5032042;28;20547;-46
2022/05/24 00:58:45;;;;;;;12.57;11.67;;;;;;;14.91;96.71;99615.94;5031630;28;20436;-45
2022/05/24 01:01:32;;;;;;;13.10;11.90;;;;;;;14.91;96.79;99611.41;5031887;28;20454;-46
2022/05/24 01:04:00;;;;;;;11.63;10.70;;;;;;;14.94;96.78;99604.72;5031544;28;20563;-48
2022/05/24 01:06:29;;;;;;;12.30;11.20;;;;;;;14.91;96.85;99602.53;5031848;28;20452;-44
2022/05/24 01:09:00;;;;;;;13.63;12.63;;;;;;;14.91;96.88;99592.59;5031915;28;20467;-43
2022/05/24 01:11:31;;;;;;;11.93;11.20;;;;;;;14.94;96.83;99596.66;5022715;28;20472;-46
2022/05/24 01:14:02;;;;;;;13.90;13.00;;;;;;;14.89;96.61;99592.06;5021001;28;20459;-45
2022/05/24 01:16:29;;;;;;;13.10;12.20;;;;;;;14.89;96.34;99601.97;5012099;28;20460;-46
2022/05/24 01:18:58;;;;;;;13.40;12.60;;;;;;;14.93;96.33;99598.53;5012090;28;20441;-48
2022/05/24 01:21:25;;;;;;;12.20;11.47;;;;;;;14.96;96.58;99594.53;5011805;28;20425;-46
2022/05/24 01:24:02;;;;;;;13.40;12.10;;;;;;;14.99;96.70;99593.22;5011878;28;20461;-46
2022/05/24 01:26:43;;;;;;;13.17;12.33;;;;;;;15.00;96.85;99603.69;5012089;28;20830;-46
2022/05/24 01:29:11;;;;;;;12.13;11.23;;;;;;;15.04;97.05;99598.63;5011938;28;20436;-45
2022/05/24 01:37:12;;;;;;;13.57;12.57;;;;;;;15.10;97.17;99603.00;5011954;28;20444;-48
2022/05/24 01:39:42;;;;;;;12.43;11.53;;;;;;;15.09;97.10;99601.38;5011883;28;20437;-45
2022/05/24 01:42:12;;;;;;;13.17;12.27;;;;;;;15.13;96.92;99607.88;5011441;28;20436;-46
2022/05/24 01:44:46;;;;;;;14.40;13.20;;;;;;;15.18;97.27;99607.91;5012055;28;20748;-46
2022/05/24 01:47:15;;;;;;;13.00;11.73;;;;;;;15.19;97.24;99604.97;5011755;28;20472;-44
2022/05/24 01:49:46;;;;;;;13.60;12.50;;;;;;;15.22;97.25;99606.34;5012040;28;20439;-44
2022/05/24 01:52:17;;;;;;;12.67;11.87;;;;;;;15.24;97.44;99610.38;5011328;28;20816;-44
2022/05/24 01:54:49;;;;;;;14.30;13.00;;;;;;;15.27;97.28;99606.38;5011975;28;20428;-48
2022/05/24 01:57:21;;;;;;;13.67;12.67;;;;;;;15.25;97.47;99609.34;5011645;28;20552;-47
2022/05/24 01:59:52;;;;;;;12.80;12.00;;;;;;;15.30;97.49;99620.13;5011872;28;20433;-50
2022/05/24 02:02:20;;;;;;;13.90;12.90;;;;;;;15.32;97.51;99611.81;5011128;28;20432;-45
2022/05/24 02:04:47;;;;;;;13.57;12.57;;;;;;;15.31;97.49;99613.69;5011699;28;20483;-47
2022/05/24 02:07:18;;;;;;;14.67;13.70;;;;;;;15.32;97.41;99617.97;5011554;28;20461;-46
2022/05/24 02:09:48;;;;;;;15.30;14.00;;;;;;;15.31;97.44;99619.06;5011809;28;20433;-44
2022/05/24 02:12:20;;;;;;;15.77;14.30;;;;;;;15.28;97.60;99606.13;5010939;28;20479;-44
2022/05/24 02:14:52;;;;;;;14.90;13.90;;;;;;;15.29;97.07;99617.69;5011689;28;20802;-44
2022/05/24 02:17:23;;;;;;;16.67;15.00;;;;;;;15.25;96.93;99616.56;5011421;28;20456;-46
2022/05/24 02:19:54;;;;;;;16.53;15.13;;;;;;;15.24;95.95;99612.25;5013060;28;20433;-47
2022/05/24 02:22:23;;;;;;;16.63;15.50;;;;;;;15.25;95.76;99608.53;5023399;28;20427;-49
2022/05/24 02:24:59;;;;;;;15.50;14.50;;;;;;;15.26;95.84;99621.69;5024584;28;20426;-46
2022/05/24 02:27:29;;;;;;;16.87;15.67;;;;;;;15.28;95.75;99633.00;5024017;28;20448;-45
2022/05/24 02:29:57;;;;;;;15.47;14.20;;;;;;;15.24;95.54;99633.75;5023779;28;20453;-47
2022/05/24 02:32:25;;;;;;;13.37;12.27;;;;;;;15.16;95.31;99635.03;5031486;28;22279;-48
2022/05/24 02:34:52;;;;;;;14.57;13.17;;;;;;;15.11;95.21;99644.91;5034904;28;20436;-48
2022/05/24 02:37:20;;;;;;;12.70;11.90;;;;;;;15.03;95.27;99640.78;5034708;28;20810;-44
2022/05/24 02:42:35;;;;;;;12.13;11.13;;;;;;;14.95;94.96;99646.59;5033951;28;20463;-44
2022/05/24 02:45:03;;;;;;;11.30;10.40;;;;;;;14.82;95.79;99661.22;5034376;28;20434;-47
2022/05/24 02:47:30;;;;;;;11.33;10.53;;;;;;;14.71;95.56;99664.03;5034246;28;20468;-44
2022/05/24 02:49:58;;;;;;;10.27;9.47;;;;;;;14.63;95.25;99676.00;5034321;28;20875;-47
2022/05/24 02:52:26;;;;;;;10.57;9.77;;;;;;;14.58;94.38;99677.78;5033891;28;20842;-44
2022/05/24 02:54:53;;;;;;;11.37;10.57;;;;;;;14.54;94.16;99682.88;5034275;28;20439;-46
2022/05/24 02:57:21;;;;;;;10.90;10.00;;;;;;;14.49;93.50;99681.97;5034086;28;20456;-47
2022/05/24 02:59:50;;;;;;;9.43;8.50;;;;;;;14.50;93.29;99676.38;5034022;28;20432;-47
2022/05/24 03:02:17;;;;;;;10.07;9.27;;;;;;;14.50;92.59;99681.72;5033548;28;20455;-46
2022/05/24 03:04:45;;;;;;;9.60;9.00;;;;;;;14.48;92.79;99694.59;5034184;28;20454;-45
2022/05/24 03:09:59;;;;;;;8.80;8.30;;;;;;;14.48;92.59;99702.63;5034143;28;20433;-44
2022/05/24 03:15:13;;;;;;;11.63;10.63;;;;;;;14.37;92.00;99708.91;5033974;28;20435;-44
2022/05/24 03:17:40;;;;;;;11.90;11.03;;;;;;;14.36;92.05;99716.16;5033879;28;20440;-44
2022/05/24 03:20:09;;;;;;;15.93;14.27;;;;;;;14.31;92.61;99709.84;5033848;28;20436;-47
2022/05/24 03:22:37;;;;;;;16.93;15.47;;;;;;;14.33;92.17;99711.28;5033259;28;20459;-46
2022/05/24 03:25:06;;;;;;;18.37;16.50;;;;;;;14.24;93.72;99707.34;5033690;28;20987;-46
2022/05/24 03:27:33;;;;;;;20.60;18.63;;;;;;;14.27;92.33;99714.09;5033722;28;20487;-46
2022/05/24 03:30:01;;;;;;;25.03;19.50;;;;;;;14.23;92.77;99719.13;5033790;28;20438;-47
2022/05/24 03:32:30;;;;;;;21.63;19.57;;;;;;;14.24;92.21;99714.59;5031842;28;20468;-45
2022/05/24 03:34:57;;;;;;;25.73;21.00;;;;;;;14.21;92.39;99720.44;5033383;28;20428;-47
2022/05/24 03:37:26;;;;;;;31.47;23.93;;;;;;;14.20;92.52;99721.47;5033646;28;20448;-46
2022/05/24 03:39:54;;;;;;;27.53;22.67;;;;;;;14.15;93.66;99718.72;5033711;28;20432;-47
2022/05/24 03:42:23;;;;;;;26.00;22.87;;;;;;;14.19;93.20;99728.72;5032797;28;20432;-44
2022/05/24 03:44:51;;;;;;;26.47;22.60;;;;;;;14.21;92.95;99731.16;5033327;28;20428;-48
2022/05/24 03:47:19;;;;;;;29.87;24.40;;;;;;;14.18;94.02;99732.47;5032993;28;20460;-47
2022/05/24 03:49:48;;;;;;;32.60;26.73;;;;;;;14.14;94.03;99730.50;5033522;28;20432;-46
2022/05/24 03:52:15;;;;;;;28.17;24.93;;;;;;;14.07;94.67;99732.53;5032169;28;20471;-48
2022/05/24 03:54:43;;;;;;;29.63;23.40;;;;;;;14.02;94.64;99740.50;5032983;28;20952;-48
2022/05/24 03:59:57;;;;;;;24.70;20.67;;;;;;;13.91;95.63;99769.00;5032821;28;20886;-44
2022/05/24 04:02:24;;;;;;;21.43;19.30;;;;;;;13.91;95.41;99758.28;5032543;28;20435;-49
2022/05/24 04:04:53;;;;;;;26.63;19.33;;;;;;;13.92;95.64;99767.94;5032848;28;20917;-46
2022/05/24 04:07:21;;;;;;;19.97;17.87;;;;;;;13.83;96.41;99772.88;5032846;28;20471;-47
2022/05/24 04:09:48;;;;;;;17.63;15.93;;;;;;;13.83;96.28;99786.28;5032849;28;20432;-46
2022/05/24 04:12:16;;;;;;;17.70;15.67;;;;;;;13.82;96.43;99789.22;5032119;28;20481;-44
2022/05/24 04:14:44;;;;;;;19.47;15.03;;;;;;;13.84;96.50;99787.09;5032773;28;20432;-46
2022/05/24 04:17:12;;;;;;;15.57;13.67;;;;;;;13.84;96.74;99793.25;5033003;28;20448;-48
2022/05/24 04:19:40;;;;;;;15.17;13.70;;;;;;;13.87;96.62;99797.31;5032753;28;20435;-46
2022/05/24 04:22:09;;;;;;;17.00;12.03;;;;;;;13.89;97.52;99805.13;5031986;28;20428;-46
2022/05/24 04:24:36;;;;;;;12.70;11.40;;;;;;;13.89;97.92;99808.59;5032594;28;20428;-46
2022/05/24 04:27:05;;;;;;;12.10;11.13;;;;;;;13.96;97.82;99817.31;5032256;28;20459;-48
2022/05/24 04:29:33;;;;;;;12.00;10.20;;;;;;;13.98;97.72;99819.78;5032591;28;20443;-47
2022/05/24 04:32:00;;;;;;;11.27;9.53;;;;;;;14.00;98.34;99823.84;5032056;28;20428;-46
2022/05/24 04:34:28;;;;;;;12.70;10.10;;;;;;;13.96;98.47;99825.38;5032182;28;20471;-46
2022/05/24 04:36:56;;;;;;;11.00;9.60;;;;;;;13.93;98.62;99847.28;5032241;28;20455;-47
2022/05/24 04:39:32;;;;;;;13.67;9.93;;;;;;;13.93;98.51;99833.06;5032221;28;20440;-47
2022/05/24 04:44:45;;;;;;;11.43;10.03;;;;;;;14.07;98.53;99834.38;5032198;28;20440;-46
2022/05/24 04:47:13;;;;;;;10.33;9.33;;;;;;;14.12;98.66;99840.69;5031932;28;20969;-48
2022/05/24 04:49:44;;;;;;;11.13;10.03;;;;;;;14.11;98.99;99838.22;5032154;28;20429;-48
2022/05/24 04:52:13;;;;;;;10.80;9.73;;;;;;;14.16;98.69;99835.63;5031715;28;20433;-44
2022/05/24 04:54:43;;;;;;;11.67;10.47;;;;;;;14.17;98.57;99843.44;5032204;28;20511;-46
2022/05/24 04:57:13;;;;;;;13.37;11.17;;;;;;;14.17;98.59;99850.66;5032020;28;20459;-45
2022/05/24 04:59:40;;;;;;;12.40;9.83;;;;;;;14.23;98.57;99857.75;5032067;28;20837;-48
2022/05/24 05:02:16;;;;;;;13.97;11.20;;;;;;;14.20;98.59;99867.09;5031340;28;20432;-49
2022/05/24 05:04:44;;;;;;;12.60;10.57;;;;;;;14.22;98.73;99878.38;5031880;28;20444;-44
2022/05/24 05:07:12;;;;;;;13.37;11.87;;;;;;;14.17;98.76;99880.16;5031788;28;20539;-44
2022/05/24 05:09:40;;;;;;;14.43;12.20;;;;;;;14.21;98.46;99878.63;5032001;28;20436;-48
2022/05/24 05:12:11;;;;;;;12.57;11.10;;;;;;;14.16;98.67;99879.34;5031255;28;20432;-48
2022/05/24 05:14:41;;;;;;;17.80;11.70;;;;;;;14.09;98.66;99878.69;5031855;28;20471;-49
2022/05/24 05:17:09;;;;;;;12.77;11.10;;;;;;;14.02;98.63;99886.06;5032228;28;20448;-45
2022/05/24 05:19:37;;;;;;;13.30;10.77;;;;;;;14.10;98.73;99880.31;5031938;28;20432;-48
2022/05/24 05:22:05;;;;;;;14.70;10.70;;;;;;;14.23;98.41;99884.56;5031597;28;20428;-44
2022/05/24 05:24:33;;;;;;;15.37;9.87;;;;;;;14.24;98.35;99883.53;5031440;28;20967;-46
2022/05/24 05:27:01;;;;;;;12.13;10.77;;;;;;;14.29;98.14;99871.00;5031492;28;20464;-48
2022/05/24 05:32:20;;;;;;;11.07;10.00;;;;;;;14.48;98.24;99876.19;5031563;28;20449;-46
2022/05/24 05:34:48;;;;;;;11.73;9.00;;;;;;;14.55;97.60;99887.56;5031652;28;20482;-47
2022/05/24 05:37:17;;;;;;;8.53;7.93;;;;;;;14.83;97.53;99885.63;5031667;28;20826;-46
2022/05/24 05:39:45;;;;;;;8.93;8.07;;;;;;;14.96;96.66;99892.53;5031569;28;20421;-49
2022/05/24 05:42:13;;;;;;;9.50;8.80;;;;;;;15.05;95.39;99893.75;5030732;28;20446;-48
2022/05/24 05:44:42;;;;;;;9.77;7.73;;;;;;;15.02;93.71;99899.63;5031751;28;20428;-47
2022/05/24 05:47:10;;;;;;;8.00;7.20;;;;;;;14.95;92.68;99905.16;5031323;28;20462;-46
2022/05/24 05:49:38;;;;;;;8.03;7.33;;;;;;;14.81;91.66;99909.19;5031456;28;21004;-50
2022/05/24 05:52:05;;;;;;;8.80;8.10;;;;;;;14.73;91.68;99903.41;5030825;28;20435;-45
2022/05/24 05:54:33;;;;;;;8.57;7.70;;;;;;;14.64;91.96;99902.19;5032322;28;20471;-47
2022/05/24 05:57:01;;;;;;;6.80;6.40;;;;;;;14.55;92.31;99907.16;5035400;28;20456;-45
2022/05/24 05:59:29;;;;;;;9.50;8.20;;;;;;;14.56;92.40;99913.34;5035363;28;20436;-47
2022/05/24 06:01:58;;;;;;;9.53;8.60;;;;;;;14.57;92.86;99906.94;5035096;28;20800;-46
2022/05/24 06:04:27;;;;;;;10.43;8.83;;;;;;;14.54;92.95;99908.22;5034707;28;20475;-49
2022/05/24 06:06:54;;;;;;;7.93;7.17;;;;;;;14.54;93.19;99915.47;5034983;28;20452;-45
2022/05/24 06:09:23;;;;;;;8.90;8.13;;;;;;;14.64;93.57;99923.66;5035040;28;20444;-46
2022/05/24 06:11:51;;;;;;;8.60;7.87;;;;;;;14.72;93.42;99923.28;5034169;28;20444;-45
2022/05/24 06:14:18;;;;;;;8.30;7.67;;;;;;;14.70;92.70;99920.84;5034356;28;20482;-46
2022/05/24 06:17:07;;;;;;;9.20;8.30;;;;;;;14.75;92.61;99925.47;5035049;28;20455;-46
2022/05/24 06:19:35;;;;;;;8.90;8.10;;;;;;;14.85;92.82;99921.09;5034788;28;20814;-46
2022/05/24 06:22:02;;;;;;;10.73;8.57;;;;;;;14.93;92.46;99922.56;5034790;28;20454;-49
2022/05/24 06:24:30;;;;;;;9.83;7.70;;;;;;;15.07;92.60;99926.53;5034381;28;20821;-52
2022/05/24 06:26:58;;;;;;;9.13;8.20;;;;;;;15.23;91.68;99938.31;5034676;28;20449;-47
2022/05/24 06:29:25;;;;;;;8.00;7.50;;;;;;;15.49;92.29;99934.97;5034655;28;20439;-47
2022/05/24 06:31:53;;;;;;;9.53;8.20;;;;;;;15.66;89.78;99941.09;5034396;28;20432;-48
2022/05/24 06:34:23;;;;;;;7.90;7.30;;;;;;;15.81;88.82;99946.69;5034096;28;20503;-48
2022/05/24 06:36:50;;;;;;;9.27;8.07;;;;;;;15.69;85.87;99945.97;5034665;28;20452;-50
2022/05/24 06:39:18;;;;;;;8.33;7.53;;;;;;;15.71;86.51;99946.53;5034447;28;20448;-47
2022/05/24 06:41:49;;;;;;;10.87;7.77;;;;;;;15.69;87.12;99959.41;5034184;28;20435;-47
2022/05/24 06:44:17;;;;;;;8.10;7.60;;;;;;;15.44;86.55;99967.91;5033979;28;20464;-51
2022/05/24 06:46:44;;;;;;;8.67;7.97;;;;;;;15.48;87.65;99957.50;5034169;28;20467;-49
2022/05/24 06:49:12;;;;;;;7.83;7.23;;;;;;;15.55;88.67;99960.03;5034545;28;20463;-46
2022/05/24 06:51:41;;;;;;;8.30;7.60;;;;;;;15.55;88.78;99966.22;5034210;28;20428;-46
2022/05/24 06:54:09;;;;;;;8.30;7.50;;;;;;;15.61;89.17;99969.78;5033657;28;20476;-49
2022/05/24 06:56:37;;;;;;;9.47;8.57;;;;;;;15.67;88.94;99966.94;5034135;28;20452;-52
2022/05/24 07:04:35;;;;;;;9.03;8.13;;;;;;;15.77;87.92;99969.72;5033971;28;20432;-50
2022/05/24 07:07:04;;;;;;;9.03;8.37;;;;;;;15.70;87.28;99977.19;5033846;28;20453;-48
2022/05/24 07:09:33;;;;;;;10.73;8.00;;;;;;;15.70;88.14;99979.06;5033834;28;20432;-46
2022/05/24 07:12:01;;;;;;;9.67;8.67;;;;;;;15.71;88.14;99980.69;5033826;28;20535;-47
2022/05/24 07:14:30;;;;;;;9.07;8.07;;;;;;;15.64;88.54;99978.19;5033358;28;20480;-49
2022/05/24 07:16:57;;;;;;;16.10;9.13;;;;;;;15.61;88.76;99988.59;5034267;28;20451;-47
2022/05/24 07:19:25;;;;;;;10.07;8.97;;;;;;;15.61;89.45;99983.22;5033831;28;20809;-45
2022/05/24 07:21:53;;;;;;;9.30;8.60;;;;;;;15.59;89.77;99982.66;5033522;28;20435;-52
2022/05/24 07:24:22;;;;;;;9.60;8.60;;;;;;;15.56;90.01;99992.00;5033163;28;20468;-47
2022/05/24 07:26:51;;;;;;;9.90;9.00;;;;;;;15.55;90.09;99982.34;5033759;28;20452;-48
2022/05/24 07:29:21;;;;;;;9.50;8.70;;;;;;;15.65;90.87;99997.81;5033745;28;20458;-47
2022/05/24 07:31:49;;;;;;;10.17;9.20;;;;;;;15.79;91.41;99996.38;5033346;28;20522;-48
2022/05/24 07:34:16;;;;;;;11.57;9.93;;;;;;;15.96;91.73;99991.75;5032919;28;20997;-50
2022/05/24 07:36:44;;;;;;;10.53;9.47;;;;;;;16.07;90.86;99993.50;5033307;28;20948;-49
2022/05/24 07:39:12;;;;;;;9.00;8.20;;;;;;;16.27;90.21;99998.34;5033579;28;20436;-47
2022/05/24 07:47:32;;;;;;;7.93;7.03;;;;;;;16.84;86.42;99994.13;5033312;28;20517;-50
2022/05/24 07:50:00;;;;;;;12.87;7.83;;;;;;;17.31;86.32;99999.63;5033336;28;20424;-46
2022/05/24 07:52:28;;;;;;;7.47;6.97;;;;;;;17.41;81.45;100006.97;5032596;28;20454;-48
2022/05/24 07:54:55;;;;;;;7.50;6.87;;;;;;;17.39;79.85;100009.09;5032999;28;20499;-48
2022/05/24 07:57:24;;;;;;;8.93;8.03;;;;;;;17.37;80.16;100004.00;5032879;28;20456;-49
2022/05/24 07:59:52;;;;;;;8.30;7.50;;;;;;;17.26;80.14;100013.06;5033221;28;20438;-44
2022/05/24 08:02:21;;;;;;;7.97;7.37;;;;;;;17.17;80.07;100020.00;5032420;28;20432;-47
2022/05/24 08:04:49;;;;;;;7.23;6.73;;;;;;;17.07;80.56;100028.00;5033011;28;20428;-49
2022/05/24 08:07:17;;;;;;;7.03;6.37;;;;;;;16.96;81.15;100027.09;5032721;28;20965;-51
2022/05/24 08:09:44;;;;;;;6.20;5.90;;;;;;;16.95;80.38;100025.47;5032730;28;21030;-49
2022/05/24 08:12:12;;;;;;;7.17;6.63;;;;;;;17.09;80.72;100033.94;5031945;28;20436;-48
2022/05/24 08:14:41;;;;;;;7.27;6.77;;;;;;;17.33;80.74;100023.63;5032781;28;20504;-50
2022/05/24 08:17:09;;;;;;;7.07;6.37;;;;;;;17.60;79.64;100030.59;5032153;28;20456;-50
2022/05/24 08:19:38;;;;;;;8.00;7.50;;;;;;;17.96;79.22;100036.19;5032698;28;20435;-48
2022/05/24 08:22:07;;;;;;;8.00;7.50;;;;;;;18.06;76.59;100030.88;5031960;28;20436;-50
2022/05/24 08:24:35;;;;;;;7.17;6.77;;;;;;;18.00;74.90;100040.81;5032428;28;20428;-48
2022/05/24 08:27:03;;;;;;;7.17;6.87;;;;;;;18.03;75.50;100042.19;5032620;28;20458;-48
2022/05/24 08:29:31;;;;;;;7.93;7.20;;;;;;;17.97;75.32;100045.91;5032411;28;20930;-48
2022/05/24 08:32:00;;;;;;;7.47;6.87;;;;;;;17.76;74.68;100041.47;5032156;28;20436;-49
2022/05/24 08:34:27;;;;;;;6.97;6.63;;;;;;;17.65;76.42;100046.78;5031745;28;20483;-49
2022/05/24 08:36:56;;;;;;;7.73;7.30;;;;;;;17.77;76.92;100041.22;5031883;28;20459;-50
2022/05/24 08:39:23;;;;;;;9.23;8.60;;;;;;;17.86;76.49;100045.03;5032150;28;20937;-47
2022/05/24 08:42:03;;;;;;;9.40;8.70;;;;;;;18.12;76.61;100054.91;5031870;28;20905;-48
2022/05/24 08:50:14;;;;;;;11.53;10.50;;;;;;;18.47;73.79;100050.72;5032054;28;20495;-45
2022/05/24 08:52:47;;;;;;;12.37;11.27;;;;;;;18.84;73.96;100059.53;5031675;28;20999;-47
2022/05/24 08:55:16;;;;;;;13.43;12.13;;;;;;;18.88;72.16;100062.47;5032011;28;20991;-49
2022/05/24 08:57:48;;;;;;;14.50;12.73;;;;;;;18.90;72.10;100071.16;5031923;28;20928;-45
2022/05/24 09:00:20;;;;;;;13.17;11.97;;;;;;;19.34;71.01;100066.88;5032006;28;20770;-44
2022/05/24 09:02:49;;;;;;;12.80;11.70;;;;;;;19.59;70.29;100066.88;5031653;28;20470;-48
2022/05/24 09:05:21;;;;;;;11.77;10.77;;;;;;;20.24;67.38;100063.25;5031830;28;20434;-47
2022/05/24 09:08:03;;;;;;;12.03;11.17;;;;;;;20.64;67.74;100066.91;5031956;28;20848;-48
2022/05/24 09:10:39;;;;;;;12.70;11.77;;;;;;;20.95;65.99;100076.47;5031578;28;20428;-47
2022/05/24 09:13:24;;;;;;;11.73;10.93;;;;;;;20.72;62.83;100077.16;5031560;28;20455;-49
2022/05/24 09:15:59;;;;;;;12.40;11.60;;;;;;;20.51;63.37;100091.88;5031777;28;20478;-49
2022/05/24 09:18:36;;;;;;;12.07;11.27;;;;;;;20.21;64.67;100090.88;5031922;28;20434;-45
2022/05/24 09:21:05;;;;;;;12.70;11.50;;;;;;;20.03;65.58;100091.44;5031715;28;20431;-48
2022/05/24 09:23:39;;;;;;;12.23;11.33;;;;;;;19.70;65.77;100097.44;5031355;28;20467;-50
2022/05/24 09:26:09;;;;;;;14.30;13.07;;;;;;;19.45;66.57;100100.97;5031790;28;20444;-47
2022/05/24 09:28:46;;;;;;;13.47;12.37;;;;;;;19.23;67.85;100100.41;5031625;28;20937;-47
2022/05/24 09:31:20;;;;;;;14.53;12.07;;;;;;;18.74;68.87;100113.50;5035346;28;20876;-44
2022/05/24 09:33:55;;;;;;;13.30;11.90;;;;;;;18.24;71.87;100120.28;5035482;28;20455;-49
2022/05/24 09:36:32;;;;;;;12.93;11.90;;;;;;;17.97;75.21;100118.75;5035517;28;21004;-49
2022/05/24 09:39:01;;;;;;;12.90;11.87;;;;;;;17.73;75.49;100134.50;5035625;28;21008;-47
2022/05/24 09:41:30;;;;;;;12.50;11.23;;;;;;;17.58;75.75;100119.03;5035298;28;20432;-45
2022/05/24 09:44:04;;;;;;;11.77;10.87;;;;;;;17.69;77.49;100122.59;5035144;28;20459;-49
2022/05/24 09:46:32;;;;;;;12.63;11.30;;;;;;;18.18;79.78;100118.63;5035495;28;20581;-49
2022/05/24 09:49:03;;;;;;;11.80;10.77;;;;;;;18.74;78.81;100129.72;5035533;28;20490;-47
2022/05/24 09:51:36;;;;;;;11.93;10.93;;;;;;;19.34;75.82;100123.66;5035149;28;20522;-50
2022/05/24 09:54:06;;;;;;;11.93;10.93;;;;;;;20.04;70.85;100119.34;5034913;28;20463;-50
2022/05/24 09:56:34;;;;;;;11.30;10.30;;;;;;;20.54;68.88;100121.13;5035113;28;20997;-51
2022/05/24 09:59:04;;;;;;;12.23;11.23;;;;;;;20.70;66.49;100119.94;5035467;28;20439;-49
2022/05/24 10:01:36;;;;;;;12.60;11.50;;;;;;;20.81;66.04;100130.47;5035186;28;20431;-46
2022/05/24 10:04:19;;;;;;;12.17;11.27;;;;;;;20.58;63.56;100133.03;5034779;28;20566;-48
2022/05/24 10:06:55;;;;;;;12.50;11.30;;;;;;;20.25;65.34;100146.09;5035037;28;20447;-51
2022/05/24 10:10:01;;;;;;;12.80;11.60;;;;;;;20.29;65.79;100146.38;5035100;28;20542;-45
2022/05/24 10:12:58;;;;;;;11.70;10.70;;;;;;;20.24;66.48;100133.63;5017375;28;20470;-45
2022/05/24 10:15:31;;;;;;;13.40;12.20;;;;;;;19.97;65.91;100141.25;5035002;28;20474;-49
2022/05/24 10:18:14;;;;;;;15.90;14.40;;;;;;;19.39;67.76;100139.91;5034894;28;20439;-51
2022/05/24 10:20:50;;;;;;;13.77;12.77;;;;;;;19.07;69.57;100150.91;5034628;28;20430;-46
2022/05/24 10:23:33;;;;;;;14.00;13.00;;;;;;;18.94;71.43;100153.28;5034301;28;20470;-51
2022/05/24 10:26:12;;;;;;;15.00;13.50;;;;;;;18.67;71.58;100158.84;5034862;28;20455;-47
2022/05/24 10:28:46;;;;;;;18.50;13.13;;;;;;;18.73;73.65;100165.91;5034836;28;20444;-47
2022/05/24 10:31:29;;;;;;;14.73;13.37;;;;;;;18.53;74.27;100176.59;5034510;28;20434;-49
2022/05/24 10:39:57;;;;;;;10.20;9.37;;;;;;;18.15;74.74;100188.50;5034219;28;20431;-50
2022/05/24 10:42:43;;;;;;;10.90;10.00;;;;;;;17.99;73.38;100198.38;5034029;28;20602;-48
2022/05/24 10:45:15;;;;;;;10.40;9.50;;;;;;;17.73;73.77;100198.41;5034576;28;20439;-48
2022/05/24 10:47:48;;;;;;;10.10;9.40;;;;;;;17.60;74.42;100194.25;5034358;28;20439;-46
2022/05/24 10:50:31;;;;;;;11.03;10.13;;;;;;;17.57;75.28;100200.97;5034076;28;20428;-45
2022/05/24 10:53:05;;;;;;;10.10;9.40;;;;;;;17.57;76.15;100192.88;5033792;28;20463;-48
2022/05/24 10:55:37;;;;;;;11.10;10.30;;;;;;;17.57;76.25;100203.66;5034073;28;20438;-48
2022/05/24 10:58:09;;;;;;;11.23;10.33;;;;;;;17.62;76.10;100208.31;5034174;28;21001;-48
2022/05/24 11:00:41;;;;;;;11.73;10.90;;;;;;;17.75;76.82;100205.16;5033949;28;20428;-48
2022/05/24 11:03:11;;;;;;;13.90;12.10;;;;;;;17.70;76.48;100205.13;5033914;28;20829;-46
2022/05/24 11:05:43;;;;;;;11.90;10.97;;;;;;;17.77;78.19;100213.81;5034126;28;20579;-48
2022/05/24 11:08:30;;;;;;;13.30;12.10;;;;;;;17.85;78.07;100213.34;5034213;28;20440;-51
2022/05/24 11:11:02;;;;;;;11.80;10.93;;;;;;;17.78;77.63;100217.31;5033842;28;20428;-45
2022/05/24 11:13:41;;;;;;;14.33;12.13;;;;;;;17.49;77.50;100205.97;5032902;28;20456;-49
2022/05/24 11:16:16;;;;;;;13.00;11.90;;;;;;;17.50;78.52;100204.91;5033864;28;20475;-51
2022/05/24 11:18:44;;;;;;;12.13;11.13;;;;;;;17.44;79.00;100212.13;5033812;28;20534;-47
2022/05/24 11:21:17;;;;;;;11.13;10.13;;;;;;;17.47;80.12;100214.31;5033602;28;20443;-46
2022/05/24 11:23:50;;;;;;;12.00;11.00;;;;;;;17.38;79.79;100209.66;5033174;28;20472;-49
2022/05/24 11:26:22;;;;;;;12.47;11.17;;;;;;;17.40;80.33;100219.09;5033804;28;20506;-47
2022/05/24 11:28:54;;;;;;;12.80;11.90;;;;;;;17.39;81.30;100230.94;5033616;28;20439;-44
2022/05/24 11:31:29;;;;;;;11.83;10.93;;;;;;;17.43;81.51;100223.97;5033356;28;20436;-49
2022/05/24 11:34:00;;;;;;;12.40;11.30;;;;;;;17.53;82.07;100213.28;5033155;28;20986;-49
2022/05/24 11:36:38;;;;;;;13.03;11.77;;;;;;;17.72;81.25;100224.56;5033627;28;20479;-50
2022/05/24 11:39:17;;;;;;;11.90;10.87;;;;;;;17.89;80.74;100240.66;5033750;28;20447;-50
2022/05/24 11:41:45;;;;;;;12.47;11.47;;;;;;;17.96;80.50;100238.53;5033231;28;20800;-45
2022/05/24 11:44:29;;;;;;;13.07;12.00;;;;;;;18.41;81.35;100240.75;5032940;28;20467;-49
2022/05/24 11:46:57;;;;;;;10.50;9.57;;;;;;;18.73;79.18;100230.72;5033103;28;20458;-50
2022/05/24 11:50:03;;;;;;;9.00;8.30;;;;;;;18.73;72.81;100238.81;5033152;28;20435;-46
2022/05/24 11:53:04;;;;;;;8.07;7.47;;;;;;;18.74;72.16;100238.56;5031555;28;20451;-47
2022/05/24 11:56:07;;;;;;;9.70;8.90;;;;;;;18.78;71.79;100231.59;5021656;28;20853;-47
2022/05/24 11:58:49;;;;;;;9.73;9.17;;;;;;;18.94;73.52;100245.13;5032638;28;20435;-47
2022/05/24 12:01:40;;;;;;;11.17;10.27;;;;;;;18.93;72.36;100238.94;5033269;28;20439;-45
2022/05/24 12:10:50;;;;;;;10.00;9.40;;;;;;;19.47;70.44;100262.97;5032764;28;20442;-47
2022/05/24 12:13:56;;;;;;;11.70;10.80;;;;;;;19.56;69.89;100264.06;5032476;28;20539;-45
2022/05/24 12:16:37;;;;;;;10.97;9.97;;;;;;;19.45;67.64;100271.31;5032848;28;20475;-49
2022/05/24 12:19:09;;;;;;;12.73;11.57;;;;;;;19.21;67.72;100278.25;5032766;28;20436;-48
2022/05/24 12:21:59;;;;;;;16.40;10.90;;;;;;;19.15;69.15;100279.28;5032375;28;20467;-48
2022/05/24 12:24:52;;;;;;;12.57;11.57;;;;;;;19.00;68.50;100284.63;5032131;28;20481;-46
2022/05/24 12:27:26;;;;;;;11.40;10.57;;;;;;;19.04;70.08;100286.56;5032565;28;20836;-47
2022/05/24 12:29:58;;;;;;;11.80;11.00;;;;;;;19.04;69.13;100278.44;5032577;28;20432;-46